Time;durP1;ratioP1;P1;durP2;ratioP2;P2;SDS_P1;SDS_P2;PMS_P1;PMS_P2;Temp;Humidity;BMP_temperature;BMP_pressure;BME280_temperature;BME280_humidity;BME280_pressure;Samples;Min_cycle;Max_cycle;Signal;HPM_P1;HPM_P2
2023/02/25 00:02:07;;;;;;;22.33;4.75;;;;;;;2.62;100.00;98318.91;5062007;28;20020;-60
2023/02/25 00:04:32;;;;;;;20.55;3.78;;;;;;;2.65;100.00;98318.47;5084203;28;20020;-61
2023/02/25 00:06:58;;;;;;;23.70;5.10;;;;;;;2.64;100.00;98321.31;5081388;28;20074;-61
2023/02/25 00:09:23;;;;;;;20.52;4.10;;;;;;;2.59;100.00;98308.72;5074426;28;20037;-60
2023/02/25 00:11:49;;;;;;;22.83;4.38;;;;;;;2.63;100.00;98311.78;5070409;28;20048;-61
2023/02/25 00:14:14;;;;;;;14.80;3.65;;;;;;;2.59;100.00;98316.66;5087413;28;20035;-60
2023/02/25 00:16:40;;;;;;;24.73;4.30;;;;;;;2.64;100.00;98319.47;5086825;28;20039;-60
2023/02/25 00:19:05;;;;;;;27.50;4.45;;;;;;;2.64;100.00;98319.47;5076564;28;20497;-60
2023/02/25 00:21:30;;;;;;;26.80;4.75;;;;;;;2.63;100.00;98317.88;5076172;28;20405;-60
2023/02/25 00:23:56;;;;;;;15.52;3.53;;;;;;;2.66;100.00;98317.44;5069207;28;20039;-60
2023/02/25 00:26:21;;;;;;;24.48;4.25;;;;;;;2.62;100.00;98318.06;5079133;28;20253;-60
2023/02/25 00:28:47;;;;;;;11.95;4.20;;;;;;;2.60;100.00;98307.72;5083319;28;20055;-61
2023/02/25 00:31:20;;;;;;;27.52;4.18;;;;;;;2.58;100.00;98312.41;5078964;28;20027;-60
2023/02/25 00:33:45;;;;;;;27.25;4.55;;;;;;;2.62;100.00;98320.72;5073025;28;20064;-60
2023/02/25 00:36:18;;;;;;;26.85;4.38;;;;;;;2.66;100.00;98316.63;5097792;28;20438;-60
2023/02/25 00:38:47;;;;;;;21.98;4.10;;;;;;;2.67;100.00;98327.00;5083048;28;20028;-60
2023/02/25 00:41:12;;;;;;;25.13;5.03;;;;;;;2.72;100.00;98332.47;5089933;28;20034;-60
2023/02/25 00:43:42;;;;;;;23.23;4.40;;;;;;;2.66;100.00;98335.16;5073492;28;20107;-60
2023/02/25 00:46:08;;;;;;;25.45;5.13;;;;;;;2.63;100.00;98333.75;5065168;28;20034;-59
2023/02/25 00:48:34;;;;;;;29.92;5.88;;;;;;;2.62;99.89;98334.78;5076685;28;20077;-59
2023/02/25 00:51:10;;;;;;;26.00;4.57;;;;;;;2.66;99.79;98328.03;5076063;28;20043;-59
2023/02/25 00:53:36;;;;;;;26.42;4.60;;;;;;;2.64;98.62;98334.56;5078916;28;20031;-59
2023/02/25 00:56:02;;;;;;;21.92;4.30;;;;;;;2.66;100.00;98349.19;5077854;28;20474;-59
2023/02/25 00:58:27;;;;;;;32.30;4.70;;;;;;;2.59;99.18;98338.63;5083188;28;20103;-59
2023/02/25 01:00:53;;;;;;;23.20;4.75;;;;;;;2.57;99.90;98331.94;5075638;28;20032;-59
2023/02/25 01:03:18;;;;;;;27.95;4.70;;;;;;;2.54;99.65;98330.53;5075122;28;20039;-59
2023/02/25 01:05:48;;;;;;;22.58;4.07;;;;;;;2.56;100.00;98325.84;5079143;28;20026;-59
2023/02/25 01:08:17;;;;;;;19.60;5.60;;;;;;;2.49;99.93;98327.69;5078451;28;20390;-59
2023/02/25 01:10:42;;;;;;;25.80;4.70;;;;;;;2.59;100.00;98328.06;5086576;28;20040;-59
2023/02/25 01:13:08;;;;;;;25.48;4.88;;;;;;;2.58;100.00;98329.09;5080669;28;20029;-60
2023/02/25 01:15:33;;;;;;;18.58;4.90;;;;;;;2.59;99.54;98327.25;5082381;28;20028;-59
2023/02/25 01:17:59;;;;;;;24.83;4.95;;;;;;;2.57;99.95;98329.28;5081370;28;20024;-59
2023/02/25 01:20:24;;;;;;;20.02;4.68;;;;;;;2.50;100.00;98334.63;5073646;28;20060;-59
2023/02/25 01:22:50;;;;;;;22.90;4.60;;;;;;;2.53;99.81;98328.91;5075317;28;20095;-59
2023/02/25 01:25:16;;;;;;;13.80;3.75;;;;;;;2.59;99.21;98329.88;5088074;28;20466;-59
2023/02/25 01:27:42;;;;;;;18.05;4.53;;;;;;;2.55;99.09;98332.16;5084189;28;20027;-59
2023/02/25 01:30:08;;;;;;;24.50;5.38;;;;;;;2.53;100.00;98322.81;5092477;28;20397;-59
2023/02/25 01:32:33;;;;;;;28.48;4.78;;;;;;;2.52;99.66;98322.00;5077335;28;20036;-59
2023/02/25 01:34:59;;;;;;;27.33;5.38;;;;;;;2.51;99.61;98325.66;5084148;28;20374;-59
2023/02/25 01:37:25;;;;;;;22.02;4.53;;;;;;;2.52;100.00;98321.19;5083360;28;20037;-59
2023/02/25 01:39:50;;;;;;;23.90;4.47;;;;;;;2.50;100.00;98316.13;5087398;28;20035;-59
2023/02/25 01:42:16;;;;;;;21.02;4.40;;;;;;;2.46;100.00;98316.75;5094137;28;20028;-59
2023/02/25 01:45:26;;;;;;;18.90;3.97;;;;;;;2.47;100.00;98318.34;5080436;28;20025;-59
2023/02/25 01:48:01;;;;;;;23.58;3.72;;;;;;;2.49;100.00;98317.13;5080609;28;20047;-59
2023/02/25 01:50:31;;;;;;;22.08;4.22;;;;;;;2.48;99.63;98320.00;5055626;28;20081;-59
2023/02/25 01:52:56;;;;;;;20.02;4.00;;;;;;;2.45;98.53;98320.44;5056953;28;20044;-59
2023/02/25 01:55:22;;;;;;;16.65;3.70;;;;;;;2.46;98.07;98330.78;5076316;28;20085;-59
2023/02/25 01:57:49;;;;;;;17.65;3.92;;;;;;;2.49;98.70;98321.59;5056065;28;20070;-59
2023/02/25 02:00:15;;;;;;;20.50;4.70;;;;;;;2.47;98.74;98335.06;5062795;28;20458;-59
2023/02/25 02:02:44;;;;;;;19.20;4.20;;;;;;;2.46;99.73;98328.13;5090859;28;20488;-59
2023/02/25 02:05:09;;;;;;;20.33;3.85;;;;;;;2.44;99.31;98332.03;5058922;28;20031;-59
2023/02/25 02:07:35;;;;;;;19.85;4.00;;;;;;;2.49;97.71;98340.94;5082585;28;20438;-59
2023/02/25 02:10:01;;;;;;;20.77;4.70;;;;;;;2.47;97.56;98321.00;5068958;28;20390;-59
2023/02/25 02:12:37;;;;;;;18.95;4.55;;;;;;;2.46;96.47;98322.03;5078616;28;20485;-60
2023/02/25 02:15:05;;;;;;;16.20;4.68;;;;;;;2.47;97.30;98323.66;5058026;28;20367;-60
2023/02/25 02:17:55;;;;;;;17.63;4.43;;;;;;;2.44;97.95;98324.88;5064917;28;20048;-59
2023/02/25 02:20:24;;;;;;;;;;;;;;;2.46;97.69;98330.78;5075968;28;20396;-59
2023/02/25 02:23:09;;;;;;;22.67;4.65;;;;;;;2.42;97.44;98334.06;5066452;28;19919;-59
2023/02/25 02:26:11;;;;;;;13.40;3.80;;;;;;;2.39;97.71;98340.59;5086023;28;20068;-59
2023/02/25 02:28:55;;;;;;;10.93;3.45;;;;;;;2.32;98.08;98332.69;5072322;28;20043;-59
2023/02/25 02:31:27;;;;;;;15.32;3.70;;;;;;;2.25;96.75;98336.41;5077562;28;20190;-60
2023/02/25 02:34:05;;;;;;;15.38;4.72;;;;;;;2.29;97.15;98337.59;5056782;28;20046;-60
2023/02/25 02:36:56;;;;;;;19.17;4.13;;;;;;;2.26;97.48;98340.66;5081227;28;20097;-59
2023/02/25 02:39:24;;;;;;;20.83;4.70;;;;;;;2.27;96.95;98350.19;5079447;28;20111;-59
2023/02/25 02:41:57;;;;;;;22.10;5.00;;;;;;;2.28;97.66;98341.25;5085530;28;20039;-59
2023/02/25 02:44:46;;;;;;;23.15;4.97;;;;;;;2.21;97.35;98341.28;5080822;28;20123;-59
2023/02/25 02:47:15;;;;;;;26.45;5.15;;;;;;;2.21;98.39;98340.47;5092049;28;20024;-59
2023/02/25 02:49:54;;;;;;;17.10;3.88;;;;;;;2.19;97.49;98338.03;5043989;28;20024;-59
2023/02/25 02:52:24;;;;;;;12.98;4.13;;;;;;;2.25;98.00;98337.19;5062570;28;20520;-59
2023/02/25 02:55:01;;;;;;;;;;;;;;;2.19;97.27;98332.75;5055028;28;20021;-59
2023/02/25 02:57:27;;;;;;;20.98;3.35;;;;;;;2.17;97.23;98334.78;5080163;28;19916;-60
2023/02/25 02:59:57;;;;;;;15.15;3.38;;;;;;;2.26;96.03;98349.38;5058579;28;20085;-59
2023/02/25 03:02:50;;;;;;;13.77;3.75;;;;;;;2.26;95.32;98344.09;5057640;28;20027;-59
2023/02/25 03:05:18;;;;;;;21.33;3.53;;;;;;;2.21;96.43;98353.69;5053735;28;20540;-59
2023/02/25 03:07:47;;;;;;;19.02;3.95;;;;;;;2.28;96.33;98352.63;5055511;28;20020;-59
2023/02/25 03:10:14;;;;;;;15.73;3.65;;;;;;;2.32;97.57;98348.56;5061385;28;20262;-60
2023/02/25 03:12:40;;;;;;;22.92;3.83;;;;;;;2.32;97.53;98343.28;5044104;28;20028;-60
2023/02/25 03:15:07;;;;;;;17.40;3.42;;;;;;;2.29;96.81;98354.25;5078461;28;20475;-59
2023/02/25 03:17:38;;;;;;;27.30;3.55;;;;;;;2.28;97.19;98354.47;5077906;28;20107;-60
2023/02/25 03:20:16;;;;;;;;;;;;;;;2.22;96.18;98348.22;5054307;28;20416;-60
2023/02/25 03:22:45;;;;;;;22.02;3.70;;;;;;;2.22;96.70;98348.22;5075049;28;20003;-59
2023/02/25 03:25:16;;;;;;;13.20;3.28;;;;;;;2.29;96.74;98348.97;5048284;28;20028;-59
2023/02/25 03:27:42;;;;;;;26.80;3.97;;;;;;;2.25;97.20;98347.78;5064245;28;20031;-59
2023/02/25 03:30:11;;;;;;;21.67;3.50;;;;;;;2.25;96.87;98342.50;5063134;28;20028;-60
2023/02/25 03:32:39;;;;;;;14.27;3.47;;;;;;;2.18;96.99;98346.19;5070927;28;20536;-60
2023/02/25 03:35:05;;;;;;;25.15;3.55;;;;;;;2.19;96.98;98348.59;5047179;28;20044;-59
2023/02/25 03:37:31;;;;;;;17.85;3.38;;;;;;;2.25;96.89;98346.97;5065033;28;20024;-60
2023/02/25 03:39:58;;;;;;;15.73;3.08;;;;;;;2.21;97.60;98348.41;5083403;28;20474;-60
2023/02/25 03:42:27;;;;;;;16.15;3.58;;;;;;;2.17;98.03;98345.34;5019049;28;20031;-60
2023/02/25 03:44:53;;;;;;;25.83;3.83;;;;;;;2.19;98.34;98345.97;5044665;28;20032;-59
2023/02/25 03:47:19;;;;;;;15.73;3.75;;;;;;;2.19;97.91;98348.59;5061450;28;20029;-60
2023/02/25 03:49:49;;;;;;;25.27;3.97;;;;;;;2.23;97.66;98349.00;5062454;28;20428;-59
2023/02/25 03:52:16;;;;;;;20.10;3.72;;;;;;;2.22;96.95;98355.31;5082045;28;20030;-60
2023/02/25 03:54:42;;;;;;;19.85;3.50;;;;;;;2.20;96.95;98363.47;5063998;28;20024;-59
2023/02/25 03:57:07;;;;;;;24.17;3.35;;;;;;;2.20;97.08;98363.47;5077184;28;20561;-59
2023/02/25 03:59:33;;;;;;;16.70;3.10;;;;;;;2.20;96.62;98363.47;5058022;28;20028;-59
2023/02/25 04:01:58;;;;;;;18.73;4.15;;;;;;;2.22;98.15;98363.22;5094065;28;20452;-60
2023/02/25 04:04:24;;;;;;;26.77;4.35;;;;;;;2.20;96.74;98360.81;5043909;28;20394;-60
2023/02/25 04:06:49;;;;;;;31.50;4.18;;;;;;;2.27;97.81;98368.72;5079522;28;20037;-59
2023/02/25 04:09:15;;;;;;;20.80;3.85;;;;;;;2.25;96.10;98368.13;5087804;28;20039;-60
2023/02/25 04:11:40;;;;;;;21.02;5.15;;;;;;;2.28;96.79;98371.16;5079644;28;20044;-60
2023/02/25 04:14:05;;;;;;;13.43;3.88;;;;;;;2.22;95.92;98369.34;5081601;28;20035;-59
2023/02/25 04:16:31;;;;;;;19.92;4.13;;;;;;;2.31;96.75;98368.09;5084931;28;20032;-60
2023/02/25 04:18:58;;;;;;;19.45;4.30;;;;;;;2.28;96.26;98367.69;5075072;28;20474;-60
2023/02/25 04:21:34;;;;;;;20.05;3.92;;;;;;;2.26;96.22;98375.84;5082632;28;20041;-60
2023/02/25 04:23:59;;;;;;;22.17;4.30;;;;;;;2.28;97.08;98373.00;5078782;28;20056;-60
2023/02/25 04:26:25;;;;;;;16.02;4.03;;;;;;;2.26;96.18;98370.53;5069005;28;20061;-59
2023/02/25 04:28:50;;;;;;;15.00;3.85;;;;;;;2.23;96.83;98370.16;5090166;28;20059;-59
2023/02/25 04:31:16;;;;;;;20.67;3.67;;;;;;;2.20;98.26;98365.28;5081211;28;20032;-60
2023/02/25 04:33:41;;;;;;;25.70;4.53;;;;;;;2.25;96.71;98368.13;5080337;28;20039;-60
2023/02/25 04:36:24;;;;;;;20.83;4.78;;;;;;;2.22;97.31;98369.34;5082740;28;20035;-59
2023/02/25 04:38:50;;;;;;;21.17;4.10;;;;;;;2.15;98.28;98369.38;5085244;28;20030;-61
2023/02/25 04:41:15;;;;;;;20.88;5.03;;;;;;;2.16;98.52;98370.19;5076565;28;20029;-60
2023/02/25 04:43:41;;;;;;;23.17;4.68;;;;;;;2.16;98.70;98368.34;5069806;28;20078;-59
2023/02/25 04:46:06;;;;;;;18.10;5.47;;;;;;;2.14;99.16;98370.38;5079944;28;20036;-59
2023/02/25 04:48:32;;;;;;;19.02;5.72;;;;;;;2.10;99.18;98360.44;5062598;28;20463;-58
2023/02/25 04:51:01;;;;;;;22.40;6.93;;;;;;;2.12;99.26;98364.50;5087130;28;20054;-59
2023/02/25 04:53:26;;;;;;;23.88;5.57;;;;;;;2.14;99.16;98366.94;5072723;28;20067;-59
2023/02/25 04:55:52;;;;;;;17.60;5.10;;;;;;;2.09;99.82;98369.38;5082915;28;20133;-61
2023/02/25 04:58:17;;;;;;;17.67;5.97;;;;;;;2.07;99.56;98366.13;5078402;28;20039;-59
2023/02/25 05:00:47;;;;;;;21.20;5.78;;;;;;;2.12;99.39;98366.31;5088168;28;20115;-59
2023/02/25 05:03:12;;;;;;;15.15;5.25;;;;;;;2.13;100.00;98370.59;5087058;28;20028;-59
2023/02/25 05:05:38;;;;;;;14.77;5.00;;;;;;;2.08;100.00;98379.16;5086168;28;20451;-59
2023/02/25 05:08:03;;;;;;;20.33;4.50;;;;;;;2.05;100.00;98379.56;5089170;28;20616;-59
2023/02/25 05:10:29;;;;;;;16.90;5.10;;;;;;;2.02;100.00;98384.44;5073482;28;20049;-59
2023/02/25 05:12:54;;;;;;;21.85;4.82;;;;;;;1.97;100.00;98371.03;5075779;28;20620;-61
2023/02/25 05:15:20;;;;;;;19.27;4.68;;;;;;;2.03;100.00;98375.53;5077919;28;20047;-60
2023/02/25 05:17:46;;;;;;;19.98;5.30;;;;;;;2.00;100.00;98370.63;5078893;28;20475;-60
2023/02/25 05:20:12;;;;;;;25.98;5.32;;;;;;;2.00;100.00;98373.28;5082642;28;20028;-60
2023/02/25 05:22:38;;;;;;;20.35;4.70;;;;;;;1.93;100.00;98382.03;5059328;28;20039;-60
2023/02/25 05:25:05;;;;;;;12.93;4.15;;;;;;;1.94;100.00;98372.28;5063330;28;20033;-60
2023/02/25 05:27:31;;;;;;;20.10;4.68;;;;;;;2.03;100.00;98362.31;5080752;28;20020;-60
2023/02/25 05:29:56;;;;;;;30.95;4.63;;;;;;;2.01;100.00;98351.13;5062482;28;20052;-60
2023/02/25 05:32:22;;;;;;;22.95;5.38;;;;;;;1.93;100.00;98354.81;5078512;28;20237;-60
2023/02/25 05:34:47;;;;;;;16.00;4.63;;;;;;;1.92;100.00;98363.75;5082477;28;20081;-59
2023/02/25 05:37:13;;;;;;;23.13;4.88;;;;;;;1.86;100.00;98362.75;5079442;28;20031;-59
2023/02/25 05:39:38;;;;;;;15.68;4.13;;;;;;;1.87;100.00;98366.19;5077410;28;20067;-60
2023/02/25 05:42:04;;;;;;;20.10;3.80;;;;;;;1.88;100.00;98365.19;5077954;28;20071;-60
2023/02/25 05:44:30;;;;;;;18.55;3.78;;;;;;;1.91;100.00;98373.50;5086990;28;20233;-59
2023/02/25 05:46:56;;;;;;;12.73;3.08;;;;;;;1.82;100.00;98374.75;5086880;28;20032;-60
2023/02/25 05:49:21;;;;;;;21.92;4.97;;;;;;;1.71;100.00;98373.53;5066550;28;20073;-60
2023/02/25 05:51:48;;;;;;;22.63;4.13;;;;;;;1.66;100.00;98375.19;5078425;28;20031;-60
2023/02/25 05:54:13;;;;;;;26.08;4.28;;;;;;;1.72;100.00;98374.34;5080069;27;20058;-60
2023/02/25 05:56:39;;;;;;;27.30;7.75;;;;;;;1.61;100.00;98367.06;5091392;28;20024;-60
2023/02/25 05:59:04;;;;;;;24.25;8.07;;;;;;;1.56;100.00;98365.03;5081498;28;20024;-60
2023/02/25 06:01:30;;;;;;;21.23;6.35;;;;;;;1.63;100.00;98367.69;5092224;28;20062;-59
2023/02/25 06:03:58;;;;;;;20.88;5.22;;;;;;;1.72;100.00;98379.63;5078270;28;20489;-59
2023/02/25 06:06:26;;;;;;;21.23;4.95;;;;;;;1.67;100.00;98379.44;5086616;28;20366;-60
2023/02/25 06:08:51;;;;;;;19.50;4.68;;;;;;;1.78;100.00;98386.75;5084397;28;20128;-61
2023/02/25 06:11:21;;;;;;;21.05;3.80;;;;;;;1.73;100.00;98389.19;5080098;28;20053;-60
2023/02/25 06:13:48;;;;;;;17.15;4.63;;;;;;;1.74;100.00;98382.88;5059502;28;20044;-60
2023/02/25 06:16:14;;;;;;;17.75;4.63;;;;;;;1.73;100.00;98387.38;5060174;28;20090;-58
2023/02/25 06:18:40;;;;;;;22.88;4.65;;;;;;;1.71;100.00;98389.41;5073175;28;20032;-60
2023/02/25 06:21:06;;;;;;;17.83;4.90;;;;;;;1.78;100.00;98383.31;5074366;28;20028;-60
2023/02/25 06:23:33;;;;;;;21.55;5.03;;;;;;;1.73;100.00;98392.66;5079542;28;20118;-60
2023/02/25 06:25:59;;;;;;;24.05;5.00;;;;;;;1.80;100.00;98395.28;5079112;28;20020;-60
2023/02/25 06:28:24;;;;;;;18.77;5.03;;;;;;;1.82;100.00;98401.19;5078189;28;20073;-60
2023/02/25 06:30:52;;;;;;;21.13;4.72;;;;;;;1.76;100.00;98401.19;5081140;28;20039;-59
2023/02/25 06:33:20;;;;;;;26.33;6.32;;;;;;;1.75;100.00;98403.03;5063285;28;20045;-59
2023/02/25 06:35:53;;;;;;;21.05;5.35;;;;;;;1.68;100.00;98399.56;5080926;28;20428;-60
2023/02/25 06:38:18;;;;;;;17.48;5.30;;;;;;;1.76;100.00;98411.75;5078407;28;20188;-60
2023/02/25 06:40:44;;;;;;;21.27;5.03;;;;;;;1.92;100.00;98412.13;5059573;28;20497;-60
2023/02/25 06:43:10;;;;;;;14.90;4.25;;;;;;;1.90;100.00;98421.28;5083044;28;20471;-60
2023/02/25 06:45:35;;;;;;;20.55;5.93;;;;;;;1.87;100.00;98414.59;5063612;28;20098;-59
2023/02/25 06:48:00;;;;;;;16.27;4.65;;;;;;;1.85;100.00;98421.91;5080933;28;20024;-59
2023/02/25 06:50:26;;;;;;;17.20;4.20;;;;;;;2.01;100.00;98425.13;5082020;28;20024;-58
2023/02/25 06:52:52;;;;;;;26.35;5.47;;;;;;;1.99;100.00;98425.31;5080153;28;20374;-58
2023/02/25 06:55:17;;;;;;;26.08;6.35;;;;;;;1.87;100.00;98422.53;5077397;28;20035;-59
2023/02/25 06:57:43;;;;;;;25.65;5.90;;;;;;;1.85;100.00;98432.47;5073035;28;20099;-59
2023/02/25 07:00:09;;;;;;;21.30;5.85;;;;;;;1.83;100.00;98439.00;5071200;28;20025;-59
2023/02/25 07:02:34;;;;;;;29.38;5.00;;;;;;;1.88;100.00;98428.63;5074671;28;20107;-60
2023/02/25 07:05:01;;;;;;;21.45;6.18;;;;;;;2.08;100.00;98431.22;5075923;28;20451;-59
2023/02/25 07:07:27;;;;;;;29.67;4.82;;;;;;;2.15;100.00;98432.03;5076895;28;20458;-59
2023/02/25 07:09:52;;;;;;;17.48;5.68;;;;;;;2.13;100.00;98439.34;5070942;28;20032;-59
2023/02/25 07:12:18;;;;;;;26.13;5.47;;;;;;;2.25;100.00;98448.25;5080924;28;20147;-60
2023/02/25 07:14:44;;;;;;;24.67;4.85;;;;;;;2.24;100.00;98457.19;5076870;28;20028;-60
2023/02/25 07:17:09;;;;;;;22.23;6.47;;;;;;;2.53;100.00;98457.72;5073609;28;20032;-60
2023/02/25 07:19:35;;;;;;;28.10;6.55;;;;;;;2.28;100.00;98465.53;5074711;28;20402;-60
2023/02/25 07:22:00;;;;;;;27.13;5.97;;;;;;;2.32;100.00;98462.28;5063200;28;20020;-60
2023/02/25 07:24:26;;;;;;;21.98;5.32;;;;;;;2.17;100.00;98466.97;5074660;28;20508;-59
2023/02/25 07:26:52;;;;;;;23.25;6.72;;;;;;;2.17;100.00;98459.03;5075971;28;20032;-59
2023/02/25 07:29:18;;;;;;;26.42;5.75;;;;;;;2.19;100.00;98459.66;5064699;28;20462;-59
2023/02/25 07:31:44;;;;;;;33.55;6.57;;;;;;;2.40;100.00;98455.94;5076749;28;20103;-59
2023/02/25 07:34:10;;;;;;;30.60;5.95;;;;;;;2.33;100.00;98449.88;5056203;28;20403;-59
2023/02/25 07:36:36;;;;;;;29.05;5.38;;;;;;;2.38;100.00;98456.16;5063326;28;20036;-59
2023/02/25 07:39:06;;;;;;;25.20;5.75;;;;;;;2.46;100.00;98462.22;5078285;28;20028;-59
2023/02/25 07:41:31;;;;;;;21.20;5.60;;;;;;;2.47;100.00;98467.31;5083733;28;20556;-59
2023/02/25 07:43:57;;;;;;;40.90;9.15;;;;;;;2.48;100.00;98474.22;5079327;28;20051;-59
2023/02/25 07:46:22;;;;;;;36.90;6.85;;;;;;;2.41;100.00;98467.34;5075964;28;20039;-59
2023/02/25 07:48:47;;;;;;;22.00;6.03;;;;;;;2.40;100.00;98468.34;5080403;28;20047;-59
2023/02/25 07:51:16;;;;;;;31.35;6.35;;;;;;;2.35;100.00;98468.97;5076714;28;20024;-59
2023/02/25 07:53:41;;;;;;;29.80;6.68;;;;;;;2.30;100.00;98468.78;5071984;28;20040;-60
2023/02/25 07:56:07;;;;;;;27.30;6.68;;;;;;;2.34;100.00;98476.06;5078824;28;20066;-59
2023/02/25 07:58:32;;;;;;;13.10;4.45;;;;;;;2.28;100.00;98476.91;5082826;28;20031;-59
2023/02/25 08:00:58;;;;;;;18.20;5.22;;;;;;;2.41;100.00;98477.91;5076742;28;20076;-59
2023/02/25 08:03:24;;;;;;;25.02;6.22;;;;;;;2.44;100.00;98480.94;5073734;28;20048;-59
2023/02/25 08:05:50;;;;;;;23.67;6.55;;;;;;;2.43;100.00;98481.16;5079036;28;20032;-59
2023/02/25 08:08:16;;;;;;;23.30;5.88;;;;;;;2.49;100.00;98480.31;5083418;28;20032;-60
2023/02/25 08:10:42;;;;;;;26.65;5.75;;;;;;;2.44;99.73;98472.19;5078879;28;20655;-59
2023/02/25 08:13:07;;;;;;;25.55;6.13;;;;;;;2.56;100.00;98486.41;5080958;28;20038;-59
2023/02/25 08:15:33;;;;;;;14.77;5.78;;;;;;;2.62;100.00;98474.16;5076433;28;20012;-60
2023/02/25 08:17:58;;;;;;;19.63;6.55;;;;;;;2.87;100.00;98482.19;5081555;28;20482;-59
2023/02/25 08:20:24;;;;;;;41.25;5.88;;;;;;;2.77;98.75;98483.50;5083698;28;20061;-59
2023/02/25 08:22:49;;;;;;;19.30;4.97;;;;;;;2.67;98.51;98477.84;5072483;28;20024;-60
2023/02/25 08:25:15;;;;;;;21.23;5.32;;;;;;;2.72;97.83;98479.81;5065415;28;20036;-59
2023/02/25 08:27:42;;;;;;;21.00;5.25;;;;;;;2.81;97.32;98483.88;5086039;28;20030;-60
2023/02/25 08:30:09;;;;;;;20.02;5.18;;;;;;;2.77;97.58;98486.13;5085034;28;20492;-60
2023/02/25 08:32:35;;;;;;;31.20;5.85;;;;;;;2.91;98.23;98483.41;5057347;28;20055;-59
2023/02/25 08:35:00;;;;;;;33.97;4.72;;;;;;;2.81;95.96;98494.44;5084079;28;20039;-59
2023/02/25 08:37:26;;;;;;;22.52;5.55;;;;;;;2.91;96.08;98488.72;5082650;28;20031;-59
2023/02/25 08:39:56;;;;;;;21.83;5.32;;;;;;;2.80;95.32;98496.28;5084474;28;20103;-59
2023/02/25 08:42:22;;;;;;;27.38;4.88;;;;;;;2.86;94.80;98480.59;5077534;28;20035;-59
2023/02/25 08:44:48;;;;;;;28.80;5.15;;;;;;;2.78;93.38;98495.69;5060259;28;20516;-59
2023/02/25 08:47:13;;;;;;;29.10;5.40;;;;;;;2.93;94.72;98491.97;5086133;28;20029;-59
2023/02/25 08:49:39;;;;;;;23.00;5.18;;;;;;;2.90;94.34;98490.56;5093178;28;20500;-59
2023/02/25 08:52:05;;;;;;;29.20;5.63;;;;;;;2.98;95.55;98494.78;5064902;28;20031;-59
2023/02/25 08:54:31;;;;;;;20.50;5.22;;;;;;;2.95;95.23;98489.94;5081865;28;20486;-60
2023/02/25 08:56:59;;;;;;;19.60;4.13;;;;;;;2.93;95.42;98492.78;5082683;28;20058;-61
2023/02/25 08:59:24;;;;;;;23.77;4.80;;;;;;;2.92;94.46;98485.03;5090902;28;20028;-60
2023/02/25 09:01:51;;;;;;;25.38;5.03;;;;;;;2.94;95.95;98494.38;5087809;28;20101;-59
2023/02/25 09:04:21;;;;;;;31.73;5.97;;;;;;;3.06;95.57;98481.31;5053654;28;20034;-60
2023/02/25 09:06:47;;;;;;;;;;;;;;;3.14;95.06;98494.28;5085325;28;20105;-60
2023/02/25 09:09:16;;;;;;;27.27;5.93;;;;;;;3.17;94.49;98491.22;5079373;28;19920;-59
2023/02/25 09:11:42;;;;;;;20.98;4.70;;;;;;;3.37;93.59;98493.75;5069741;28;20512;-59
2023/02/25 09:14:07;;;;;;;19.80;3.38;;;;;;;3.19;92.69;98505.03;5065397;28;20041;-60
2023/02/25 09:16:33;;;;;;;21.25;3.90;;;;;;;3.19;92.76;98497.09;5094478;28;20024;-59
2023/02/25 09:18:58;;;;;;;23.35;5.05;;;;;;;3.29;92.71;98501.13;5084964;28;20148;-59
2023/02/25 09:21:23;;;;;;;18.70;4.80;;;;;;;3.40;92.98;98497.81;5082149;28;20035;-60
2023/02/25 09:23:52;;;;;;;27.90;4.68;;;;;;;3.61;91.69;98488.69;5080093;28;20426;-60
2023/02/25 09:26:19;;;;;;;33.15;5.57;;;;;;;3.51;89.37;98488.38;5085602;28;20035;-59
2023/02/25 09:28:44;;;;;;;23.50;4.20;;;;;;;3.81;89.81;98488.53;5062227;28;20177;-59
2023/02/25 09:31:13;;;;;;;25.98;4.35;;;;;;;3.69;89.16;98485.78;5065170;28;20041;-59
2023/02/25 09:33:38;;;;;;;21.10;4.38;;;;;;;4.00;88.42;98481.47;5077504;28;20181;-59
2023/02/25 09:36:08;;;;;;;22.50;4.03;;;;;;;4.26;86.60;98485.69;5068193;28;20930;-59
2023/02/25 09:38:37;;;;;;;27.02;4.15;;;;;;;4.42;86.84;98477.16;5085545;28;20480;-59
2023/02/25 09:41:08;;;;;;;26.27;4.60;;;;;;;5.92;83.61;98472.03;5056826;28;20068;-60
2023/02/25 09:43:38;;;;;;;24.38;4.80;;;;;;;5.36;81.15;98472.25;5062665;28;20056;-59
2023/02/25 09:46:12;;;;;;;22.30;4.18;;;;;;;5.44;80.80;98465.81;5075438;28;20093;-59
2023/02/25 09:48:54;;;;;;;26.80;4.25;;;;;;;5.49;78.83;98468.63;5043442;28;20037;-59
2023/02/25 09:51:26;;;;;;;24.67;4.38;;;;;;;5.22;80.91;98476.16;5065674;28;20042;-59
2023/02/25 09:54:38;;;;;;;29.35;6.63;;;;;;;6.73;74.21;98482.84;5052795;28;20248;-60
2023/02/25 09:57:04;;;;;;;19.73;4.07;;;;;;;7.51;71.24;98476.88;5081411;28;20061;-60
2023/02/25 09:59:29;;;;;;;19.60;3.65;;;;;;;8.51;66.93;98473.56;5048603;28;20028;-60
2023/02/25 10:02:00;;;;;;;24.92;3.83;;;;;;;8.43;66.30;98478.28;5083216;28;20027;-60
2023/02/25 10:04:26;;;;;;;27.73;3.63;;;;;;;7.89;66.51;98478.03;5071241;28;20107;-60
2023/02/25 10:06:51;;;;;;;24.02;4.30;;;;;;;8.42;67.24;98482.00;5063993;28;20074;-60
2023/02/25 10:09:39;;;;;;;24.77;3.83;;;;;;;8.88;63.17;98486.31;5043499;28;20396;-59
2023/02/25 10:12:38;;;;;;;18.80;4.50;;;;;;;9.42;61.97;98497.06;5088493;28;20040;-60
2023/02/25 10:15:25;;;;;;;20.83;3.42;;;;;;;8.47;61.27;98491.16;5053498;28;20054;-59
2023/02/25 10:18:29;;;;;;;22.48;4.03;;;;;;;7.69;65.11;98493.69;5082528;28;20048;-60
2023/02/25 10:21:30;;;;;;;26.35;3.65;;;;;;;6.61;67.60;98494.34;5071913;28;20052;-60
2023/02/25 10:24:17;;;;;;;16.90;3.55;;;;;;;5.57;70.59;98499.38;5035947;28;20044;-59
2023/02/25 10:26:48;;;;;;;27.38;3.95;;;;;;;5.25;72.73;98504.94;5080500;28;20067;-59
2023/02/25 10:29:35;;;;;;;18.52;3.13;;;;;;;5.24;73.15;98505.97;5055980;28;20035;-59
2023/02/25 10:32:18;;;;;;;26.25;3.78;;;;;;;5.20;73.33;98507.47;5062193;28;20382;-59
2023/02/25 10:34:43;;;;;;;20.02;4.05;;;;;;;5.22;73.00;98515.19;5041508;28;20024;-60
2023/02/25 10:37:18;;;;;;;17.02;2.95;;;;;;;4.89;76.81;98505.81;5065628;28;20045;-60
2023/02/25 10:39:47;;;;;;;23.45;3.88;;;;;;;4.82;80.18;98516.53;5056976;28;20443;-60
2023/02/25 10:42:13;;;;;;;18.55;3.95;;;;;;;4.20;82.60;98519.22;5063033;28;20418;-60
2023/02/25 10:44:40;;;;;;;18.95;4.50;;;;;;;4.18;84.65;98521.25;5082687;28;20032;-59
2023/02/25 10:47:06;;;;;;;27.38;4.88;;;;;;;4.09;86.92;98527.84;5084444;28;20433;-59
2023/02/25 10:49:37;;;;;;;23.70;4.18;;;;;;;3.96;88.94;98528.78;5049858;28;20039;-60
2023/02/25 10:52:17;;;;;;;;;;;;;;;3.80;91.84;98532.81;5079677;28;20406;-59
2023/02/25 10:54:47;;;;;;;;;;;;;;;3.67;93.84;98530.25;5066305;28;19916;-59
2023/02/25 10:57:21;;;;;;;13.43;4.13;;;;;;;3.62;93.28;98522.94;5071213;28;20267;-60
2023/02/25 10:59:48;;;;;;;21.70;4.45;;;;;;;3.61;93.62;98526.59;5052314;28;20024;-59
2023/02/25 11:02:29;;;;;;;25.05;5.03;;;;;;;3.64;94.34;98538.59;5045875;28;20041;-59
2023/02/25 11:04:54;;;;;;;11.32;3.92;;;;;;;3.65;98.92;98535.75;5065057;28;20044;-59
2023/02/25 11:07:24;;;;;;;18.60;4.55;;;;;;;3.77;96.64;98535.06;5057376;28;20028;-59
2023/02/25 11:10:10;;;;;;;16.17;4.53;;;;;;;3.85;96.36;98527.66;5053410;28;20940;-59
2023/02/25 11:12:51;;;;;;;22.02;4.95;;;;;;;3.59;96.25;98523.34;5056408;28;20039;-59
2023/02/25 11:15:24;;;;;;;22.92;7.28;;;;;;;3.89;96.13;98525.38;5058861;28;20055;-59
2023/02/25 11:17:50;;;;;;;16.38;4.70;;;;;;;3.88;97.06;98534.38;5058703;28;20039;-59
2023/02/25 11:20:26;;;;;;;13.27;5.18;;;;;;;3.72;96.56;98541.03;5061122;28;20029;-60
2023/02/25 11:22:53;;;;;;;15.70;5.68;;;;;;;3.83;93.09;98539.50;5050495;28;20177;-59
2023/02/25 11:25:21;;;;;;;24.85;7.47;;;;;;;3.76;93.71;98546.69;5061957;28;20035;-59
2023/02/25 11:27:52;;;;;;;16.08;5.53;;;;;;;3.54;93.03;98539.06;5041777;28;20028;-59
2023/02/25 11:30:19;;;;;;;13.60;6.70;;;;;;;3.93;92.86;98544.34;5064712;28;20032;-60
2023/02/25 11:32:52;;;;;;;16.05;6.00;;;;;;;3.71;92.93;98541.22;5035684;28;20033;-59
2023/02/25 11:35:29;;;;;;;10.45;3.65;;;;;;;3.77;95.71;98546.50;5061616;28;20035;-61
2023/02/25 11:37:57;;;;;;;9.30;3.05;;;;;;;3.52;98.13;98538.50;5042867;28;20042;-61
2023/02/25 11:40:28;;;;;;;9.82;4.25;;;;;;;3.49;98.15;98554.81;5057342;28;20426;-61